sensor_id;sensor_type;location;lat;lon;timestamp;pressure;altitude;pressure_sealevel;temperature;humidity
38630;BME280;24384;51.988;4.644;2023-05-07T00:01:36;101670.69;;;15.25;88.50
38630;BME280;24384;51.988;4.644;2023-05-07T00:04:02;101668.28;;;15.19;89.02
38630;BME280;24384;51.988;4.644;2023-05-07T00:06:28;101677.09;;;15.19;88.93
38630;BME280;24384;51.988;4.644;2023-05-07T00:08:56;101671.53;;;15.03;90.15
38630;BME280;24384;51.988;4.644;2023-05-07T00:11:22;101684.47;;;15.13;90.14
38630;BME280;24384;51.988;4.644;2023-05-07T00:13:48;101674.63;;;15.15;89.80
38630;BME280;24384;51.988;4.644;2023-05-07T00:16:13;101678.84;;;15.20;89.92
38630;BME280;24384;51.988;4.644;2023-05-07T00:18:39;101685.06;;;15.19;90.57
38630;BME280;24384;51.988;4.644;2023-05-07T00:21:04;101678.22;;;15.14;90.14
38630;BME280;24384;51.988;4.644;2023-05-07T00:23:30;101679.94;;;15.15;90.63
38630;BME280;24384;51.988;4.644;2023-05-07T00:25:55;101671.00;;;15.17;89.87
38630;BME280;24384;51.988;4.644;2023-05-07T00:28:21;101674.25;;;15.24;90.17
38630;BME280;24384;51.988;4.644;2023-05-07T00:30:46;101667.97;;;15.27;90.25
38630;BME280;24384;51.988;4.644;2023-05-07T00:33:13;101667.13;;;15.26;90.16
38630;BME280;24384;51.988;4.644;2023-05-07T00:35:38;101658.91;;;15.32;90.38
38630;BME280;24384;51.988;4.644;2023-05-07T00:38:03;101665.00;;;15.34;90.08
38630;BME280;24384;51.988;4.644;2023-05-07T00:40:28;101666.75;;;15.35;89.50
38630;BME280;24384;51.988;4.644;2023-05-07T00:42:54;101665.81;;;15.36;89.43
38630;BME280;24384;51.988;4.644;2023-05-07T00:45:25;101669.09;;;15.43;89.36
38630;BME280;24384;51.988;4.644;2023-05-07T00:47:51;101665.81;;;15.36;89.51
38630;BME280;24384;51.988;4.644;2023-05-07T00:50:17;101658.53;;;15.42;89.17
38630;BME280;24384;51.988;4.644;2023-05-07T00:52:44;101659.50;;;15.39;89.22
38630;BME280;24384;51.988;4.644;2023-05-07T00:55:09;101663.16;;;15.36;89.24
38630;BME280;24384;51.988;4.644;2023-05-07T00:57:36;101664.75;;;15.40;88.47
38630;BME280;24384;51.988;4.644;2023-05-07T01:00:04;101659.56;;;15.37;88.24
38630;BME280;24384;51.988;4.644;2023-05-07T01:02:30;101663.09;;;15.38;88.46
38630;BME280;24384;51.988;4.644;2023-05-07T01:04:56;101659.25;;;15.45;88.22
38630;BME280;24384;51.988;4.644;2023-05-07T01:07:22;101656.41;;;15.50;88.40
38630;BME280;24384;51.988;4.644;2023-05-07T01:09:48;101657.09;;;15.55;87.66
38630;BME280;24384;51.988;4.644;2023-05-07T01:12:14;101658.28;;;15.48;87.46
38630;BME280;24384;51.988;4.644;2023-05-07T01:14:41;101651.16;;;15.48;88.37
38630;BME280;24384;51.988;4.644;2023-05-07T01:17:07;101650.25;;;15.49;88.34
38630;BME280;24384;51.988;4.644;2023-05-07T01:19:34;101653.69;;;15.51;87.62
38630;BME280;24384;51.988;4.644;2023-05-07T01:22:08;101652.16;;;15.46;87.88
38630;BME280;24384;51.988;4.644;2023-05-07T01:24:35;101650.50;;;15.43;88.21
38630;BME280;24384;51.988;4.644;2023-05-07T01:27:01;101652.28;;;15.43;88.48
38630;BME280;24384;51.988;4.644;2023-05-07T01:29:28;101653.28;;;15.40;88.73
38630;BME280;24384;51.988;4.644;2023-05-07T01:31:54;101649.97;;;15.33;89.10
38630;BME280;24384;51.988;4.644;2023-05-07T01:34:21;101652.50;;;15.36;88.79
38630;BME280;24384;51.988;4.644;2023-05-07T01:36:47;101642.00;;;15.33;88.67
38630;BME280;24384;51.988;4.644;2023-05-07T01:39:13;101645.38;;;15.38;88.64
38630;BME280;24384;51.988;4.644;2023-05-07T01:41:39;101638.56;;;15.31;88.70
38630;BME280;24384;51.988;4.644;2023-05-07T01:44:05;101639.16;;;15.38;88.81
38630;BME280;24384;51.988;4.644;2023-05-07T01:46:31;101637.50;;;15.35;88.70
38630;BME280;24384;51.988;4.644;2023-05-07T01:48:57;101637.25;;;15.42;88.73
38630;BME280;24384;51.988;4.644;2023-05-07T01:51:23;101638.59;;;15.52;87.66
38630;BME280;24384;51.988;4.644;2023-05-07T01:53:52;101638.97;;;15.43;87.56
38630;BME280;24384;51.988;4.644;2023-05-07T01:56:18;101642.84;;;15.35;87.36
38630;BME280;24384;51.988;4.644;2023-05-07T01:58:44;101641.63;;;15.43;87.29
38630;BME280;24384;51.988;4.644;2023-05-07T02:01:11;101634.59;;;15.42;87.72
38630;BME280;24384;51.988;4.644;2023-05-07T02:03:36;101636.69;;;15.33;87.66
38630;BME280;24384;51.988;4.644;2023-05-07T02:06:01;101640.16;;;15.35;87.82
38630;BME280;24384;51.988;4.644;2023-05-07T02:08:27;101634.78;;;15.15;88.67
38630;BME280;24384;51.988;4.644;2023-05-07T02:10:52;101633.59;;;15.22;88.14
38630;BME280;24384;51.988;4.644;2023-05-07T02:13:18;101629.97;;;15.25;88.48
38630;BME280;24384;51.988;4.644;2023-05-07T02:15:44;101633.59;;;15.22;89.00
38630;BME280;24384;51.988;4.644;2023-05-07T02:18:14;101631.00;;;15.20;88.40
38630;BME280;24384;51.988;4.644;2023-05-07T02:20:39;101633.50;;;15.25;88.42
38630;BME280;24384;51.988;4.644;2023-05-07T02:23:04;101637.06;;;15.24;88.23
38630;BME280;24384;51.988;4.644;2023-05-07T02:25:30;101636.88;;;15.29;87.78
38630;BME280;24384;51.988;4.644;2023-05-07T02:27:55;101640.53;;;15.26;88.30
38630;BME280;24384;51.988;4.644;2023-05-07T02:30:20;101646.72;;;15.27;88.39
38630;BME280;24384;51.988;4.644;2023-05-07T02:32:46;101643.19;;;15.26;88.45
38630;BME280;24384;51.988;4.644;2023-05-07T02:35:11;101636.09;;;15.27;88.73
38630;BME280;24384;51.988;4.644;2023-05-07T02:37:36;101644.38;;;15.19;88.50
38630;BME280;24384;51.988;4.644;2023-05-07T02:40:02;101644.25;;;15.22;88.11
38630;BME280;24384;51.988;4.644;2023-05-07T02:42:29;101648.00;;;15.16;89.28
38630;BME280;24384;51.988;4.644;2023-05-07T02:44:54;101646.41;;;15.12;89.38
38630;BME280;24384;51.988;4.644;2023-05-07T02:47:19;101649.56;;;15.22;88.81
38630;BME280;24384;51.988;4.644;2023-05-07T02:49:45;101645.84;;;15.26;88.12
38630;BME280;24384;51.988;4.644;2023-05-07T02:52:11;101645.53;;;15.12;88.92
38630;BME280;24384;51.988;4.644;2023-05-07T02:54:36;101637.38;;;15.16;88.87
38630;BME280;24384;51.988;4.644;2023-05-07T02:57:01;101640.97;;;15.15;88.99
38630;BME280;24384;51.988;4.644;2023-05-07T02:59:28;101643.31;;;15.23;88.27
38630;BME280;24384;51.988;4.644;2023-05-07T03:01:55;101645.22;;;15.19;88.83
38630;BME280;24384;51.988;4.644;2023-05-07T03:04:21;101639.78;;;15.22;88.70
38630;BME280;24384;51.988;4.644;2023-05-07T03:06:47;101636.22;;;15.24;88.60
38630;BME280;24384;51.988;4.644;2023-05-07T03:09:12;101648.50;;;15.26;88.56
38630;BME280;24384;51.988;4.644;2023-05-07T03:11:37;101651.28;;;15.23;88.46
38630;BME280;24384;51.988;4.644;2023-05-07T03:14:02;101646.16;;;15.18;89.25
38630;BME280;24384;51.988;4.644;2023-05-07T03:16:28;101651.84;;;15.31;88.58
38630;BME280;24384;51.988;4.644;2023-05-07T03:18:53;101641.69;;;15.19;89.24
38630;BME280;24384;51.988;4.644;2023-05-07T03:21:18;101653.38;;;15.15;88.97
38630;BME280;24384;51.988;4.644;2023-05-07T03:23:43;101646.59;;;15.08;89.02
38630;BME280;24384;51.988;4.644;2023-05-07T03:26:09;101646.59;;;15.08;89.64
38630;BME280;24384;51.988;4.644;2023-05-07T03:28:34;101640.38;;;15.07;89.75
38630;BME280;24384;51.988;4.644;2023-05-07T03:31:00;101638.31;;;15.15;89.44
38630;BME280;24384;51.988;4.644;2023-05-07T03:33:25;101633.06;;;15.14;89.46
38630;BME280;24384;51.988;4.644;2023-05-07T03:35:53;101638.50;;;15.11;89.89
38630;BME280;24384;51.988;4.644;2023-05-07T03:38:19;101636.06;;;15.04;89.69
38630;BME280;24384;51.988;4.644;2023-05-07T03:40:44;101633.59;;;15.00;90.27
38630;BME280;24384;51.988;4.644;2023-05-07T03:43:11;101634.22;;;15.07;90.07
38630;BME280;24384;51.988;4.644;2023-05-07T03:45:36;101631.75;;;15.02;90.97
38630;BME280;24384;51.988;4.644;2023-05-07T03:48:01;101641.75;;;14.95;91.08
38630;BME280;24384;51.988;4.644;2023-05-07T03:50:27;101641.88;;;14.92;91.15
38630;BME280;24384;51.988;4.644;2023-05-07T03:52:52;101640.13;;;14.91;91.37
38630;BME280;24384;51.988;4.644;2023-05-07T03:55:17;101641.38;;;15.04;90.95
38630;BME280;24384;51.988;4.644;2023-05-07T03:57:44;101649.38;;;15.04;90.24
38630;BME280;24384;51.988;4.644;2023-05-07T04:00:10;101651.06;;;15.06;90.24
38630;BME280;24384;51.988;4.644;2023-05-07T04:02:35;101650.22;;;15.05;89.54
38630;BME280;24384;51.988;4.644;2023-05-07T04:05:00;101655.34;;;15.10;89.51
38630;BME280;24384;51.988;4.644;2023-05-07T04:07:26;101656.31;;;15.07;89.21
38630;BME280;24384;51.988;4.644;2023-05-07T04:09:51;101652.63;;;15.11;89.45
38630;BME280;24384;51.988;4.644;2023-05-07T04:12:16;101655.34;;;15.10;89.18
38630;BME280;24384;51.988;4.644;2023-05-07T04:14:42;101657.09;;;15.11;88.93
38630;BME280;24384;51.988;4.644;2023-05-07T04:17:07;101657.09;;;15.11;88.81
38630;BME280;24384;51.988;4.644;2023-05-07T04:19:36;101663.75;;;15.21;88.67
38630;BME280;24384;51.988;4.644;2023-05-07T04:22:01;101665.63;;;15.19;88.41
38630;BME280;24384;51.988;4.644;2023-05-07T04:24:26;101663.75;;;15.21;88.26
38630;BME280;24384;51.988;4.644;2023-05-07T04:26:52;101661.97;;;15.21;88.15
38630;BME280;24384;51.988;4.644;2023-05-07T04:29:18;101663.50;;;15.27;87.99
38630;BME280;24384;51.988;4.644;2023-05-07T04:31:44;101661.91;;;15.23;87.88
38630;BME280;24384;51.988;4.644;2023-05-07T04:34:11;101659.03;;;15.29;87.09
38630;BME280;24384;51.988;4.644;2023-05-07T04:36:38;101658.19;;;15.27;87.55
38630;BME280;24384;51.988;4.644;2023-05-07T04:39:04;101653.06;;;15.22;88.38
38630;BME280;24384;51.988;4.644;2023-05-07T04:41:29;101645.97;;;15.23;88.33
38630;BME280;24384;51.988;4.644;2023-05-07T04:43:55;101659.44;;;15.18;88.77
38630;BME280;24384;51.988;4.644;2023-05-07T04:46:22;101659.38;;;15.20;88.76
38630;BME280;24384;51.988;4.644;2023-05-07T04:48:47;101663.81;;;15.19;88.22
38630;BME280;24384;51.988;4.644;2023-05-07T04:51:12;101656.72;;;15.20;89.34
38630;BME280;24384;51.988;4.644;2023-05-07T04:53:37;101663.09;;;15.16;89.98
38630;BME280;24384;51.988;4.644;2023-05-07T04:56:03;101665.50;;;15.22;89.68
38630;BME280;24384;51.988;4.644;2023-05-07T04:58:28;101662.91;;;15.20;89.18
38630;BME280;24384;51.988;4.644;2023-05-07T05:00:56;101659.16;;;15.26;88.20
38630;BME280;24384;51.988;4.644;2023-05-07T05:03:22;101666.00;;;15.32;87.74
38630;BME280;24384;51.988;4.644;2023-05-07T05:05:49;101661.56;;;15.32;88.78
38630;BME280;24384;51.988;4.644;2023-05-07T05:08:14;101668.59;;;15.33;88.04
38630;BME280;24384;51.988;4.644;2023-05-07T05:10:40;101668.34;;;15.39;88.71
38630;BME280;24384;51.988;4.644;2023-05-07T05:13:07;101668.16;;;15.44;88.39
38630;BME280;24384;51.988;4.644;2023-05-07T05:15:33;101672.69;;;15.42;89.02
38630;BME280;24384;51.988;4.644;2023-05-07T05:17:58;101672.69;;;15.42;88.43
38630;BME280;24384;51.988;4.644;2023-05-07T05:20:23;101675.28;;;15.44;88.74
38630;BME280;24384;51.988;4.644;2023-05-07T05:22:48;101682.75;;;15.34;88.65
38630;BME280;24384;51.988;4.644;2023-05-07T05:25:14;101678.97;;;15.39;89.28
38630;BME280;24384;51.988;4.644;2023-05-07T05:27:39;101685.66;;;15.50;88.68
38630;BME280;24384;51.988;4.644;2023-05-07T05:30:05;101687.16;;;15.57;87.51
38630;BME280;24384;51.988;4.644;2023-05-07T05:32:30;101695.13;;;15.57;88.39
38630;BME280;24384;51.988;4.644;2023-05-07T05:34:57;101699.69;;;15.53;88.16
38630;BME280;24384;51.988;4.644;2023-05-07T05:37:23;101697.03;;;15.53;88.96
38630;BME280;24384;51.988;4.644;2023-05-07T05:39:49;101696.78;;;15.37;89.47
38630;BME280;24384;51.988;4.644;2023-05-07T05:42:14;101705.50;;;15.41;90.81
38630;BME280;24384;51.988;4.644;2023-05-07T05:44:40;101709.63;;;15.26;90.63
38630;BME280;24384;51.988;4.644;2023-05-07T05:47:05;101695.03;;;15.36;89.81
38630;BME280;24384;51.988;4.644;2023-05-07T05:49:30;101696.72;;;15.39;89.53
38630;BME280;24384;51.988;4.644;2023-05-07T05:51:55;101706.13;;;15.48;89.92
38630;BME280;24384;51.988;4.644;2023-05-07T05:54:21;101707.72;;;15.30;90.35
38630;BME280;24384;51.988;4.644;2023-05-07T05:56:46;101710.66;;;15.22;89.52
38630;BME280;24384;51.988;4.644;2023-05-07T05:59:11;101709.41;;;15.32;89.98
38630;BME280;24384;51.988;4.644;2023-05-07T06:01:37;101707.28;;;15.40;90.06
38630;BME280;24384;51.988;4.644;2023-05-07T06:04:02;101712.78;;;15.36;90.67
38630;BME280;24384;51.988;4.644;2023-05-07T06:06:28;101710.50;;;15.49;90.64
38630;BME280;24384;51.988;4.644;2023-05-07T06:08:53;101712.44;;;15.45;90.60
38630;BME280;24384;51.988;4.644;2023-05-07T06:11:18;101717.94;;;15.40;90.85
38630;BME280;24384;51.988;4.644;2023-05-07T06:13:44;101720.88;;;15.33;90.54
38630;BME280;24384;51.988;4.644;2023-05-07T06:16:09;101719.97;;;15.34;90.15
38630;BME280;24384;51.988;4.644;2023-05-07T06:18:34;101723.72;;;15.28;91.04
38630;BME280;24384;51.988;4.644;2023-05-07T06:21:01;101722.50;;;15.37;91.67
38630;BME280;24384;51.988;4.644;2023-05-07T06:23:26;101733.31;;;15.32;92.37
38630;BME280;24384;51.988;4.644;2023-05-07T06:25:51;101723.72;;;15.28;91.13
38630;BME280;24384;51.988;4.644;2023-05-07T06:28:17;101728.25;;;15.26;91.55
38630;BME280;24384;51.988;4.644;2023-05-07T06:30:42;101727.28;;;15.27;91.85
38630;BME280;24384;51.988;4.644;2023-05-07T06:33:07;101735.63;;;15.18;92.52
38630;BME280;24384;51.988;4.644;2023-05-07T06:35:33;101729.28;;;15.22;92.71
38630;BME280;24384;51.988;4.644;2023-05-07T06:37:59;101721.47;;;15.17;91.83
38630;BME280;24384;51.988;4.644;2023-05-07T06:40:24;101729.00;;;15.06;89.92
38630;BME280;24384;51.988;4.644;2023-05-07T06:42:50;101715.13;;;15.21;90.53
38630;BME280;24384;51.988;4.644;2023-05-07T06:45:16;101719.19;;;15.30;90.67
38630;BME280;24384;51.988;4.644;2023-05-07T06:47:42;101715.25;;;15.40;91.31
38630;BME280;24384;51.988;4.644;2023-05-07T06:50:08;101717.81;;;15.44;90.94
38630;BME280;24384;51.988;4.644;2023-05-07T06:52:34;101707.41;;;15.37;90.23
38630;BME280;24384;51.988;4.644;2023-05-07T06:55:00;101710.06;;;15.37;90.17
38630;BME280;24384;51.988;4.644;2023-05-07T06:57:27;101707.28;;;15.40;89.27
38630;BME280;24384;51.988;4.644;2023-05-07T06:59:52;101709.78;;;15.45;88.99
38630;BME280;24384;51.988;4.644;2023-05-07T07:02:17;101716.88;;;15.45;89.55
38630;BME280;24384;51.988;4.644;2023-05-07T07:04:43;101713.44;;;15.65;89.85
38630;BME280;24384;51.988;4.644;2023-05-07T07:07:08;101711.88;;;15.59;89.58
38630;BME280;24384;51.988;4.644;2023-05-07T07:09:33;101717.69;;;15.69;89.48
38630;BME280;24384;51.988;4.644;2023-05-07T07:11:58;101706.84;;;15.73;89.73
38630;BME280;24384;51.988;4.644;2023-05-07T07:14:24;101717.28;;;15.80;89.44
38630;BME280;24384;51.988;4.644;2023-05-07T07:16:49;101717.38;;;15.76;90.88
38630;BME280;24384;51.988;4.644;2023-05-07T07:19:15;101725.34;;;15.76;88.19
38630;BME280;24384;51.988;4.644;2023-05-07T07:21:41;101723.59;;;15.77;89.39
38630;BME280;24384;51.988;4.644;2023-05-07T07:24:06;101724.56;;;15.74;91.20
38630;BME280;24384;51.988;4.644;2023-05-07T07:26:32;101714.47;;;15.83;90.97
38630;BME280;24384;51.988;4.644;2023-05-07T07:28:58;101728.50;;;15.86;89.98
38630;BME280;24384;51.988;4.644;2023-05-07T07:31:23;101729.88;;;16.17;91.32
38630;BME280;24384;51.988;4.644;2023-05-07T07:33:48;101720.13;;;16.38;89.57
38630;BME280;24384;51.988;4.644;2023-05-07T07:36:15;101721.31;;;16.72;86.36
38630;BME280;24384;51.988;4.644;2023-05-07T07:38:41;101714.97;;;17.14;85.64
38630;BME280;24384;51.988;4.644;2023-05-07T07:41:10;101717.97;;;17.45;85.41
38630;BME280;24384;51.988;4.644;2023-05-07T07:43:35;101716.34;;;17.79;84.03
38630;BME280;24384;51.988;4.644;2023-05-07T07:46:01;101716.03;;;18.21;82.97
38630;BME280;24384;51.988;4.644;2023-05-07T07:48:26;101724.31;;;18.50;80.39
38630;BME280;24384;51.988;4.644;2023-05-07T07:50:51;101727.78;;;18.52;78.24
38630;BME280;24384;51.988;4.644;2023-05-07T07:53:17;101731.47;;;18.50;79.33
38630;BME280;24384;51.988;4.644;2023-05-07T07:55:43;101727.63;;;18.20;80.69
38630;BME280;24384;51.988;4.644;2023-05-07T07:58:08;101729.19;;;18.07;81.11
38630;BME280;24384;51.988;4.644;2023-05-07T08:00:33;101725.94;;;17.83;84.16
38630;BME280;24384;51.988;4.644;2023-05-07T08:02:59;101734.22;;;18.13;81.74
38630;BME280;24384;51.988;4.644;2023-05-07T08:05:24;101727.47;;;18.06;80.09
38630;BME280;24384;51.988;4.644;2023-05-07T08:07:50;101729.41;;;18.02;83.29
38630;BME280;24384;51.988;4.644;2023-05-07T08:10:17;101732.09;;;18.37;83.50
38630;BME280;24384;51.988;4.644;2023-05-07T08:12:47;101733.28;;;19.00;79.17
38630;BME280;24384;51.988;4.644;2023-05-07T08:15:12;101730.13;;;19.25;78.34
38630;BME280;24384;51.988;4.644;2023-05-07T08:17:37;101730.44;;;19.35;78.37
38630;BME280;24384;51.988;4.644;2023-05-07T08:20:03;101733.50;;;19.45;76.37
38630;BME280;24384;51.988;4.644;2023-05-07T08:22:28;101744.16;;;19.13;78.79
38630;BME280;24384;51.988;4.644;2023-05-07T08:24:54;101743.97;;;18.83;77.93
38630;BME280;24384;51.988;4.644;2023-05-07T08:27:19;101741.53;;;18.78;79.16
38630;BME280;24384;51.988;4.644;2023-05-07T08:29:44;101747.38;;;18.69;79.79
38630;BME280;24384;51.988;4.644;2023-05-07T08:32:12;101742.84;;;18.53;78.96
38630;BME280;24384;51.988;4.644;2023-05-07T08:34:37;101748.19;;;18.71;80.77
38630;BME280;24384;51.988;4.644;2023-05-07T08:37:03;101747.69;;;18.63;81.83
38630;BME280;24384;51.988;4.644;2023-05-07T08:39:28;101757.47;;;18.29;82.67
38630;BME280;24384;51.988;4.644;2023-05-07T08:41:55;101752.59;;;18.54;81.17
38630;BME280;24384;51.988;4.644;2023-05-07T08:44:22;101755.09;;;18.92;79.12
38630;BME280;24384;51.988;4.644;2023-05-07T08:46:51;101752.16;;;18.79;79.18
38630;BME280;24384;51.988;4.644;2023-05-07T08:49:19;101752.53;;;19.07;77.72
38630;BME280;24384;51.988;4.644;2023-05-07T08:51:45;101749.97;;;19.37;75.51
38630;BME280;24384;51.988;4.644;2023-05-07T08:54:15;101758.06;;;19.52;75.90
38630;BME280;24384;51.988;4.644;2023-05-07T08:56:41;101759.91;;;19.51;77.66
38630;BME280;24384;51.988;4.644;2023-05-07T08:59:06;101757.13;;;20.00;74.10
38630;BME280;24384;51.988;4.644;2023-05-07T09:01:31;101750.78;;;20.01;72.75
38630;BME280;24384;51.988;4.644;2023-05-07T09:03:57;101753.66;;;19.98;72.77
38630;BME280;24384;51.988;4.644;2023-05-07T09:06:22;101762.81;;;19.62;72.39
38630;BME280;24384;51.988;4.644;2023-05-07T09:08:52;101767.22;;;19.31;74.01
38630;BME280;24384;51.988;4.644;2023-05-07T09:11:22;101769.13;;;19.45;73.71
38630;BME280;24384;51.988;4.644;2023-05-07T09:13:48;101763.22;;;19.07;76.45
38630;BME280;24384;51.988;4.644;2023-05-07T09:16:14;101761.88;;;19.47;75.23
38630;BME280;24384;51.988;4.644;2023-05-07T09:18:42;101760.75;;;19.67;74.40
38630;BME280;24384;51.988;4.644;2023-05-07T09:21:10;101759.97;;;19.65;74.95
38630;BME280;24384;51.988;4.644;2023-05-07T09:23:35;101760.94;;;19.48;75.43
38630;BME280;24384;51.988;4.644;2023-05-07T09:26:01;101754.09;;;19.43;77.14
38630;BME280;24384;51.988;4.644;2023-05-07T09:28:27;101770.66;;;19.33;76.13
38630;BME280;24384;51.988;4.644;2023-05-07T09:30:52;101768.53;;;18.91;79.22
38630;BME280;24384;51.988;4.644;2023-05-07T09:33:19;101771.00;;;19.27;78.57
38630;BME280;24384;51.988;4.644;2023-05-07T09:35:44;101766.53;;;19.28;75.88
38630;BME280;24384;51.988;4.644;2023-05-07T09:38:09;101766.00;;;19.53;75.02
38630;BME280;24384;51.988;4.644;2023-05-07T09:40:35;101768.28;;;19.77;75.12
38630;BME280;24384;51.988;4.644;2023-05-07T09:43:10;101767.38;;;19.76;73.89
38630;BME280;24384;51.988;4.644;2023-05-07T09:45:36;101766.53;;;19.76;74.41
38630;BME280;24384;51.988;4.644;2023-05-07T09:48:05;101771.28;;;19.39;74.09
38630;BME280;24384;51.988;4.644;2023-05-07T09:50:48;101769.63;;;19.52;76.83
38630;BME280;24384;51.988;4.644;2023-05-07T09:53:14;101772.66;;;19.30;75.12
38630;BME280;24384;51.988;4.644;2023-05-07T09:55:40;101770.75;;;19.64;75.17
38630;BME280;24384;51.988;4.644;2023-05-07T09:58:06;101762.28;;;20.03;71.05
38630;BME280;24384;51.988;4.644;2023-05-07T10:00:32;101763.38;;;20.15;70.80
38630;BME280;24384;51.988;4.644;2023-05-07T10:02:58;101772.06;;;20.49;71.09
38630;BME280;24384;51.988;4.644;2023-05-07T10:05:23;101779.16;;;20.81;71.81
38630;BME280;24384;51.988;4.644;2023-05-07T10:07:50;101775.66;;;20.64;68.42
38630;BME280;24384;51.988;4.644;2023-05-07T10:10:17;101782.69;;;20.81;69.55
38630;BME280;24384;51.988;4.644;2023-05-07T10:12:42;101776.84;;;21.18;68.29
38630;BME280;24384;51.988;4.644;2023-05-07T10:15:09;101779.22;;;21.37;65.76
38630;BME280;24384;51.988;4.644;2023-05-07T10:17:36;101781.31;;;21.32;68.45
38630;BME280;24384;51.988;4.644;2023-05-07T10:20:01;101768.75;;;21.46;67.09
38630;BME280;24384;51.988;4.644;2023-05-07T10:22:28;101766.19;;;22.14;65.62
38630;BME280;24384;51.988;4.644;2023-05-07T10:24:59;101760.59;;;22.57;63.42
38630;BME280;24384;51.988;4.644;2023-05-07T10:27:27;101765.31;;;23.18;61.82
38630;BME280;24384;51.988;4.644;2023-05-07T10:32:35;101762.81;;;22.38;63.92
38630;BME280;24384;51.988;4.644;2023-05-07T10:35:04;101766.38;;;23.28;61.38
38630;BME280;24384;51.988;4.644;2023-05-07T10:37:31;101771.50;;;23.44;62.55
38630;BME280;24384;51.988;4.644;2023-05-07T10:39:58;101774.28;;;23.80;59.90
38630;BME280;24384;51.988;4.644;2023-05-07T10:42:24;101775.06;;;23.69;59.81
38630;BME280;24384;51.988;4.644;2023-05-07T10:44:49;101779.94;;;23.64;60.48
38630;BME280;24384;51.988;4.644;2023-05-07T10:47:16;101772.03;;;23.73;59.58
38630;BME280;24384;51.988;4.644;2023-05-07T10:52:19;101775.38;;;24.37;59.36
38630;BME280;24384;51.988;4.644;2023-05-07T10:54:45;101783.63;;;24.11;56.96
38630;BME280;24384;51.988;4.644;2023-05-07T10:57:36;101782.41;;;24.15;57.27
38630;BME280;24384;51.988;4.644;2023-05-07T11:05:24;101779.41;;;23.58;59.32
38630;BME280;24384;51.988;4.644;2023-05-07T11:07:57;101778.66;;;23.56;58.43
38630;BME280;24384;51.988;4.644;2023-05-07T11:10:23;101777.25;;;23.64;58.43
38630;BME280;24384;51.988;4.644;2023-05-07T11:13:14;101776.00;;;23.81;59.67
38630;BME280;24384;51.988;4.644;2023-05-07T11:15:47;101776.81;;;23.57;59.60
38630;BME280;24384;51.988;4.644;2023-05-07T11:18:17;101783.50;;;23.14;57.20
38630;BME280;24384;51.988;4.644;2023-05-07T11:20:57;101785.00;;;22.67;59.52
38630;BME280;24384;51.988;4.644;2023-05-07T11:26:10;101780.56;;;23.30;59.94
38630;BME280;24384;51.988;4.644;2023-05-07T11:28:37;101784.44;;;23.26;60.49
38630;BME280;24384;51.988;4.644;2023-05-07T11:31:03;101775.22;;;23.17;59.58
38630;BME280;24384;51.988;4.644;2023-05-07T11:33:29;101771.41;;;23.33;59.49
38630;BME280;24384;51.988;4.644;2023-05-07T11:35:55;101772.38;;;23.32;61.07
38630;BME280;24384;51.988;4.644;2023-05-07T11:38:21;101776.47;;;23.37;63.78
38630;BME280;24384;51.988;4.644;2023-05-07T11:40:53;101783.47;;;23.27;57.43
38630;BME280;24384;51.988;4.644;2023-05-07T11:43:19;101780.00;;;22.35;62.78
38630;BME280;24384;51.988;4.644;2023-05-07T11:45:48;101780.78;;;22.10;59.32
38630;BME280;24384;51.988;4.644;2023-05-07T11:48:16;101783.59;;;22.21;61.72
38630;BME280;24384;51.988;4.644;2023-05-07T11:53:31;101781.50;;;22.39;64.59
38630;BME280;24384;51.988;4.644;2023-05-07T11:56:00;101790.47;;;22.78;60.57
38630;BME280;24384;51.988;4.644;2023-05-07T11:58:25;101786.50;;;22.71;61.00
38630;BME280;24384;51.988;4.644;2023-05-07T12:00:53;101788.63;;;22.40;61.03
38630;BME280;24384;51.988;4.644;2023-05-07T12:03:19;101787.25;;;21.93;63.67
38630;BME280;24384;51.988;4.644;2023-05-07T12:05:45;101791.53;;;22.50;62.12
38630;BME280;24384;51.988;4.644;2023-05-07T12:08:16;101790.47;;;22.12;62.66
38630;BME280;24384;51.988;4.644;2023-05-07T12:10:42;101792.06;;;22.15;61.84
38630;BME280;24384;51.988;4.644;2023-05-07T12:13:15;101794.25;;;21.95;60.96
38630;BME280;24384;51.988;4.644;2023-05-07T12:15:42;101786.00;;;21.98;61.27
38630;BME280;24384;51.988;4.644;2023-05-07T12:18:07;101792.66;;;21.51;61.03
38630;BME280;24384;51.988;4.644;2023-05-07T12:20:34;101782.63;;;21.95;61.07
38630;BME280;24384;51.988;4.644;2023-05-07T12:23:01;101784.06;;;21.73;63.09
38630;BME280;24384;51.988;4.644;2023-05-07T12:25:26;101785.03;;;21.72;64.50
38630;BME280;24384;51.988;4.644;2023-05-07T12:27:52;101791.00;;;21.63;62.79
38630;BME280;24384;51.988;4.644;2023-05-07T12:30:18;101793.13;;;22.12;61.07
38630;BME280;24384;51.988;4.644;2023-05-07T12:32:45;101792.63;;;21.93;61.34
38630;BME280;24384;51.988;4.644;2023-05-07T12:35:10;101791.31;;;22.53;62.84
38630;BME280;24384;51.988;4.644;2023-05-07T12:37:35;101789.09;;;22.73;59.52
38630;BME280;24384;51.988;4.644;2023-05-07T12:40:05;101785.72;;;22.43;61.53
38630;BME280;24384;51.988;4.644;2023-05-07T12:42:39;101784.47;;;22.62;62.09
38630;BME280;24384;51.988;4.644;2023-05-07T12:45:09;101787.88;;;22.64;62.61
38630;BME280;24384;51.988;4.644;2023-05-07T12:47:35;101793.06;;;22.27;63.45
38630;BME280;24384;51.988;4.644;2023-05-07T12:50:00;101800.06;;;22.02;64.78
38630;BME280;24384;51.988;4.644;2023-05-07T12:52:27;101802.34;;;21.81;65.80
38630;BME280;24384;51.988;4.644;2023-05-07T12:54:53;101812.09;;;21.55;68.95
38630;BME280;24384;51.988;4.644;2023-05-07T12:57:19;101807.69;;;21.54;67.22
38630;BME280;24384;51.988;4.644;2023-05-07T12:59:45;101808.47;;;21.41;68.06
38630;BME280;24384;51.988;4.644;2023-05-07T13:02:10;101810.75;;;21.33;67.62